createdAt,value
2017-10-18T00:00:00.080Z,1017.91
2017-10-18T00:01:09.028Z,1018
2017-10-18T00:02:18.227Z,1018
2017-10-18T00:03:27.424Z,1017.97
2017-10-18T00:04:36.277Z,1017.95
2017-10-18T00:05:45.129Z,1017.96
2017-10-18T00:06:54.227Z,1017.91
2017-10-18T00:08:03.072Z,1017.92
2017-10-18T00:09:11.921Z,1017.84
2017-10-18T00:10:20.766Z,1017.83
2017-10-18T00:11:29.613Z,1017.76
2017-10-18T00:12:38.612Z,1017.81
2017-10-18T00:13:47.459Z,1017.82
2017-10-18T00:14:56.305Z,1017.77
2017-10-18T00:16:05.154Z,1017.8
2017-10-18T00:17:14.002Z,1017.81
2017-10-18T00:18:23.253Z,1017.82
2017-10-18T00:19:32.105Z,1017.8
2017-10-18T00:20:40.953Z,1017.82
2017-10-18T00:21:49.802Z,1017.87
2017-10-18T00:22:58.648Z,1017.92
2017-10-18T00:24:07.645Z,1017.94
2017-10-18T00:25:16.496Z,1017.93
2017-10-18T00:26:25.344Z,1017.96
2017-10-18T00:27:34.192Z,1017.91
2017-10-18T00:28:43.040Z,1017.88
2017-10-18T00:29:52.141Z,1017.88
2017-10-18T00:31:00.986Z,1017.84
2017-10-18T00:32:09.834Z,1017.77
2017-10-18T00:33:18.682Z,1017.76
2017-10-18T00:34:27.526Z,1017.78
2017-10-18T00:35:36.673Z,1017.76
2017-10-18T00:36:45.522Z,1017.79
2017-10-18T00:37:54.371Z,1017.83
2017-10-18T00:39:03.567Z,1017.87
2017-10-18T00:40:12.415Z,1017.86
2017-10-18T00:41:21.462Z,1017.88
2017-10-18T00:42:30.311Z,1017.96
2017-10-18T00:43:39.158Z,1017.95
2017-10-18T00:44:48.005Z,1017.99
2017-10-18T00:45:56.852Z,1017.98
2017-10-18T00:47:06.101Z,1017.9
2017-10-18T00:48:14.951Z,1017.77
2017-10-18T00:49:23.805Z,1017.76
2017-10-18T00:50:32.647Z,1017.71
2017-10-18T00:51:41.496Z,1017.65
2017-10-18T00:52:50.544Z,1017.69
2017-10-18T00:53:59.391Z,1017.74
2017-10-18T00:55:08.238Z,1017.73
2017-10-18T00:56:17.088Z,1017.74
2017-10-18T00:57:25.941Z,1017.82
2017-10-18T00:58:35.084Z,1017.83
2017-10-18T00:59:43.932Z,1017.86
2017-10-18T01:00:52.783Z,1017.83
2017-10-18T01:02:01.981Z,1017.82
2017-10-18T01:03:10.829Z,1017.79
2017-10-18T01:04:20.017Z,1017.7
2017-10-18T01:05:28.864Z,1017.66
2017-10-18T01:06:38.089Z,1017.58
2017-10-18T01:07:46.938Z,1017.56
2017-10-18T01:08:55.788Z,1017.53
2017-10-18T01:10:04.938Z,1017.55
2017-10-18T01:11:13.785Z,1017.57
2017-10-18T01:12:22.633Z,1017.54
2017-10-18T01:13:31.478Z,1017.53
2017-10-18T01:14:40.322Z,1017.54
2017-10-18T01:15:49.169Z,1017.53
2017-10-18T01:16:58.016Z,1017.5
2017-10-18T01:18:06.865Z,1017.5
2017-10-18T01:19:15.710Z,1017.51
2017-10-18T01:20:24.561Z,1017.55
2017-10-18T01:21:33.516Z,1017.57
2017-10-18T01:22:42.361Z,1017.64
2017-10-18T01:23:51.208Z,1017.62
2017-10-18T01:25:00.056Z,1017.64
2017-10-18T01:26:08.903Z,1017.6
2017-10-18T01:27:18.153Z,1017.64
2017-10-18T01:28:27.000Z,1017.6
2017-10-18T01:29:35.843Z,1017.5
2017-10-18T01:30:44.689Z,1017.47
2017-10-18T01:31:53.541Z,1017.52
2017-10-18T01:33:02.535Z,1017.45
2017-10-18T01:34:11.381Z,1017.37
2017-10-18T01:35:20.232Z,1017.43
2017-10-18T01:36:29.084Z,1017.43
2017-10-18T01:37:37.928Z,1017.49
2017-10-18T01:38:47.031Z,1017.52
2017-10-18T01:39:56.228Z,1017.53
2017-10-18T01:41:05.076Z,1017.5
2017-10-18T01:42:13.927Z,1017.53
2017-10-18T01:43:22.773Z,1017.56
2017-10-18T01:44:31.770Z,1017.52
2017-10-18T01:45:40.616Z,1017.5
2017-10-18T01:46:49.808Z,1017.49
2017-10-18T01:47:58.656Z,1017.45
2017-10-18T01:49:07.503Z,1017.45
2017-10-18T01:50:16.503Z,1017.4
2017-10-18T01:51:25.348Z,1017.4
2017-10-18T01:52:34.198Z,1017.39
2017-10-18T01:53:43.401Z,1017.32
2017-10-18T01:54:52.255Z,1017.36
2017-10-18T01:56:01.154Z,1017.35
2017-10-18T01:57:10.003Z,1017.37
2017-10-18T01:58:18.850Z,1017.34
2017-10-18T01:59:27.694Z,1017.3
2017-10-18T02:00:36.539Z,1017.28
2017-10-18T02:01:45.537Z,1017.27
2017-10-18T02:02:54.382Z,1017.24
2017-10-18T02:04:03.229Z,1017.25
2017-10-18T02:05:12.076Z,1017.23
2017-10-18T02:06:20.925Z,1017.33
2017-10-18T02:07:29.771Z,1017.33
2017-10-18T02:08:38.966Z,1017.31
2017-10-18T02:09:47.818Z,1017.32
2017-10-18T02:10:56.663Z,1017.32
2017-10-18T02:12:05.510Z,1017.23
2017-10-18T02:13:14.658Z,1017.25
2017-10-18T02:14:23.508Z,1017.17
2017-10-18T02:15:32.356Z,1017.11
2017-10-18T02:16:41.203Z,1017.16
2017-10-18T02:17:50.051Z,1017.15
2017-10-18T02:18:59.406Z,1017.13
2017-10-18T02:20:08.253Z,1017.17
2017-10-18T02:21:17.102Z,1017.2
2017-10-18T02:22:25.952Z,1017.19
2017-10-18T02:23:34.799Z,1017.21
2017-10-18T02:24:43.855Z,1017.11
2017-10-18T02:25:52.701Z,1017.1
2017-10-18T02:27:01.547Z,1017.12
2017-10-18T02:28:10.395Z,1017.07
2017-10-18T02:29:19.245Z,1017
2017-10-18T02:30:28.141Z,1016.98
2017-10-18T02:31:36.987Z,1017.03
2017-10-18T02:32:45.833Z,1017.03
2017-10-18T02:33:54.680Z,1017.01
2017-10-18T02:35:03.881Z,1017.02
2017-10-18T02:36:12.831Z,1017.08
2017-10-18T02:37:21.675Z,1017.1
2017-10-18T02:38:30.523Z,1017.02
2017-10-18T02:39:39.373Z,1017.05
2017-10-18T02:40:48.219Z,1017.01
2017-10-18T02:41:57.413Z,1016.99
2017-10-18T02:43:06.260Z,1016.96
2017-10-18T02:44:15.116Z,1016.98
2017-10-18T02:45:23.962Z,1016.96
2017-10-18T02:46:32.809Z,1017.05
2017-10-18T02:47:41.806Z,1016.99
2017-10-18T02:48:50.651Z,1017.07
2017-10-18T02:49:59.498Z,1017.07
2017-10-18T02:51:08.344Z,1017.04
2017-10-18T02:52:17.192Z,1017.01
2017-10-18T02:53:26.191Z,1016.94
2017-10-18T02:54:35.038Z,1016.89
2017-10-18T02:55:43.886Z,1016.91
2017-10-18T02:56:52.731Z,1016.87
2017-10-18T02:58:01.583Z,1016.89
2017-10-18T02:59:10.525Z,1016.91
2017-10-18T03:00:19.372Z,1017
2017-10-18T03:01:28.219Z,1016.98
2017-10-18T03:02:37.065Z,1016.98
2017-10-18T03:03:45.911Z,1017.01
2017-10-18T03:04:55.305Z,1016.99
2017-10-18T03:06:04.151Z,1016.99
2017-10-18T03:07:12.996Z,1016.92
2017-10-18T03:08:21.844Z,1016.86
2017-10-18T03:09:30.693Z,1016.89
2017-10-18T03:10:39.640Z,1016.87
2017-10-18T03:11:48.486Z,1016.9
2017-10-18T03:12:57.331Z,1016.9
2017-10-18T03:14:06.178Z,1016.96
2017-10-18T03:15:15.024Z,1017
2017-10-18T03:16:23.920Z,1017
2017-10-18T03:17:33.118Z,1017.06
2017-10-18T03:18:41.966Z,1017.03
2017-10-18T03:19:50.813Z,1017.01
2017-10-18T03:21:00.009Z,1016.97
2017-10-18T03:22:09.003Z,1016.98
2017-10-18T03:23:17.851Z,1016.95
2017-10-18T03:24:26.703Z,1016.95
2017-10-18T03:25:35.553Z,1016.99
2017-10-18T03:26:44.395Z,1016.96
2017-10-18T03:27:53.393Z,1017
2017-10-18T03:29:02.240Z,1017.02
2017-10-18T03:30:11.088Z,1017.04
2017-10-18T03:31:19.934Z,1017.01
2017-10-18T03:32:28.780Z,1017.02
2017-10-18T03:33:37.629Z,1017
2017-10-18T03:34:46.473Z,1016.99
2017-10-18T03:35:55.321Z,1017
2017-10-18T03:37:04.168Z,1017
2017-10-18T03:38:13.015Z,1016.96
2017-10-18T03:39:22.113Z,1016.94
2017-10-18T03:40:30.967Z,1016.98
2017-10-18T03:41:39.808Z,1017.03
2017-10-18T03:42:48.657Z,1017.03
2017-10-18T03:43:57.846Z,1017.05
2017-10-18T03:45:06.844Z,1017.05
2017-10-18T03:46:15.693Z,1017.13
2017-10-18T03:47:24.536Z,1017.07
2017-10-18T03:48:33.382Z,1017.04
2017-10-18T03:49:42.230Z,1017
2017-10-18T03:50:51.229Z,1016.95
2017-10-18T03:52:00.074Z,1016.95
2017-10-18T03:53:08.924Z,1016.94
2017-10-18T03:54:18.113Z,1016.92
2017-10-18T03:55:26.962Z,1016.96
2017-10-18T03:56:35.910Z,1016.96
2017-10-18T03:57:44.760Z,1016.96
2017-10-18T03:58:53.953Z,1016.98
2017-10-18T04:00:02.809Z,1016.95
2017-10-18T04:01:11.647Z,1016.91
2017-10-18T04:02:20.796Z,1016.91
2017-10-18T04:03:29.641Z,1016.88
2017-10-18T04:04:38.489Z,1016.84
2017-10-18T04:05:47.331Z,1016.87
2017-10-18T04:06:56.179Z,1016.9
2017-10-18T04:08:05.279Z,1016.86
2017-10-18T04:09:14.126Z,1016.83
2017-10-18T04:10:22.972Z,1016.8
2017-10-18T04:11:31.819Z,1016.8
2017-10-18T04:12:40.667Z,1016.78
2017-10-18T04:13:49.564Z,1016.76
2017-10-18T04:14:58.410Z,1016.78
2017-10-18T04:16:07.258Z,1016.75
2017-10-18T04:17:16.106Z,1016.75
2017-10-18T04:18:24.952Z,1016.78
2017-10-18T04:19:33.998Z,1016.8
2017-10-18T04:20:42.846Z,1016.8
2017-10-18T04:21:52.038Z,1016.81
2017-10-18T04:23:00.888Z,1016.81
2017-10-18T04:24:09.736Z,1016.77
2017-10-18T04:25:18.735Z,1016.75
2017-10-18T04:26:27.582Z,1016.77
2017-10-18T04:27:36.429Z,1016.75
2017-10-18T04:28:45.281Z,1016.74
2017-10-18T04:29:54.131Z,1016.77
2017-10-18T04:31:03.278Z,1016.76
2017-10-18T04:32:12.125Z,1016.76
2017-10-18T04:33:20.977Z,1016.74
2017-10-18T04:34:29.815Z,1016.75
2017-10-18T04:35:38.660Z,1016.7
2017-10-18T04:36:47.559Z,1016.71
2017-10-18T04:37:56.403Z,1016.69
2017-10-18T04:39:05.251Z,1016.66
2017-10-18T04:40:14.102Z,1016.62
2017-10-18T04:41:22.951Z,1016.7
2017-10-18T04:42:31.799Z,1016.63
2017-10-18T04:43:40.675Z,1016.72
2017-10-18T04:44:49.523Z,1016.67
2017-10-18T04:45:58.369Z,1016.66
2017-10-18T04:47:07.214Z,1016.64
2017-10-18T04:48:16.437Z,1016.58
2017-10-18T04:49:25.794Z,1016.56
2017-10-18T04:50:34.643Z,1016.51
2017-10-18T04:51:43.491Z,1016.49
2017-10-18T04:52:52.384Z,1016.49
2017-10-18T04:54:02.517Z,1016.48
2017-10-18T04:55:11.410Z,1016.47
2017-10-18T04:56:20.265Z,1016.45
2017-10-18T04:57:29.113Z,1016.48
2017-10-18T04:58:37.970Z,1016.46
2017-10-18T04:59:46.825Z,1016.51
2017-10-18T05:01:09.840Z,1016.49
2017-10-18T05:02:18.857Z,1016.46
2017-10-18T05:03:27.727Z,1016.43
2017-10-18T05:04:36.590Z,1016.42
2017-10-18T05:05:46.577Z,1016.35
2017-10-18T05:06:57.211Z,1016.3
2017-10-18T05:08:06.664Z,1016.34
2017-10-18T05:09:15.515Z,1016.36
2017-10-18T05:10:24.371Z,1016.32
2017-10-18T05:11:33.220Z,1016.31
2017-10-18T05:12:42.071Z,1016.31
2017-10-18T05:13:51.021Z,1016.29
2017-10-18T05:14:59.871Z,1016.29
2017-10-18T05:16:08.726Z,1016.34
2017-10-18T05:17:17.575Z,1016.33
2017-10-18T05:18:26.456Z,1016.35
2017-10-18T05:19:35.419Z,1016.36
2017-10-18T05:20:44.629Z,1016.37
2017-10-18T05:21:53.491Z,1016.29
2017-10-18T05:23:02.340Z,1016.19
2017-10-18T05:24:11.192Z,1016.16
2017-10-18T05:25:20.259Z,1016.17
2017-10-18T05:26:29.090Z,1016.12
2017-10-18T05:27:37.940Z,1016.11
2017-10-18T05:28:46.797Z,1016.08
2017-10-18T05:29:56.344Z,1016.12
2017-10-18T05:31:05.850Z,1016.07
2017-10-18T05:32:14.698Z,1016.12
2017-10-18T05:33:23.589Z,1016.14
2017-10-18T05:34:32.448Z,1016.14
2017-10-18T05:35:41.296Z,1016.17
2017-10-18T05:36:50.680Z,1016.18
2017-10-18T05:37:59.538Z,1016.19
2017-10-18T05:39:08.383Z,1016.2
2017-10-18T05:40:17.256Z,1016.24
2017-10-18T05:41:26.154Z,1016.2
2017-10-18T05:42:35.120Z,1016.23
2017-10-18T05:43:43.970Z,1016.23
2017-10-18T05:44:52.820Z,1016.2
2017-10-18T05:46:01.676Z,1016.19
2017-10-18T05:47:10.527Z,1016.2
2017-10-18T05:48:19.525Z,1016.21
2017-10-18T05:49:28.375Z,1016.24
2017-10-18T05:50:37.241Z,1016.28
2017-10-18T05:51:46.087Z,1016.29
2017-10-18T05:52:54.952Z,1016.36
2017-10-18T05:54:04.004Z,1016.39
2017-10-18T05:55:12.900Z,1016.41
2017-10-18T05:56:21.768Z,1016.38
2017-10-18T05:57:30.614Z,1016.37
2017-10-18T05:58:39.464Z,1016.38
2017-10-18T05:59:48.464Z,1016.35
2017-10-18T06:00:57.312Z,1016.34
2017-10-18T06:02:06.161Z,1016.33
2017-10-18T06:03:15.010Z,1016.38
2017-10-18T06:04:23.858Z,1016.39
2017-10-18T06:05:32.757Z,1016.39
2017-10-18T06:06:41.605Z,1016.38
2017-10-18T06:07:50.455Z,1016.36
2017-10-18T06:08:59.305Z,1016.33
2017-10-18T06:10:08.159Z,1016.28
2017-10-18T06:11:17.258Z,1016.25
2017-10-18T06:12:26.107Z,1016.28
2017-10-18T06:13:34.955Z,1016.29
2017-10-18T06:14:43.807Z,1016.24
2017-10-18T06:15:52.656Z,1016.28
2017-10-18T06:17:01.906Z,1016.27
2017-10-18T06:18:10.765Z,1016.24
2017-10-18T06:19:19.737Z,1016.28
2017-10-18T06:20:28.662Z,1016.28
2017-10-18T06:21:37.549Z,1016.28
2017-10-18T06:22:46.575Z,1016.25
2017-10-18T06:23:55.542Z,1016.27
2017-10-18T06:25:04.439Z,1016.22
2017-10-18T06:26:13.428Z,1016.23
2017-10-18T06:27:22.650Z,1016.22
2017-10-18T06:28:31.811Z,1016.25
2017-10-18T06:29:40.768Z,1016.17
2017-10-18T06:30:49.713Z,1016.21
2017-10-18T06:31:58.563Z,1016.27
2017-10-18T06:33:07.414Z,1016.23
2017-10-18T06:34:16.417Z,1016.2
2017-10-18T06:35:25.265Z,1016.19
2017-10-18T06:36:34.115Z,1016.16
2017-10-18T06:37:42.965Z,1016.19
2017-10-18T06:38:51.815Z,1016.16
2017-10-18T06:40:00.670Z,1016.12
2017-10-18T06:41:09.518Z,1016.1
2017-10-18T06:42:18.365Z,1016.12
2017-10-18T06:43:27.212Z,1016.13
2017-10-18T06:44:36.070Z,1016.14
2017-10-18T06:45:45.020Z,1016.13
2017-10-18T06:46:53.869Z,1016.14
2017-10-18T06:48:02.718Z,1016.16
2017-10-18T06:49:11.571Z,1016.17
2017-10-18T06:50:20.421Z,1016.17
2017-10-18T06:51:29.521Z,1016.15
2017-10-18T06:52:38.370Z,1016.19
2017-10-18T06:53:47.570Z,1016.22
2017-10-18T06:54:56.420Z,1016.21
2017-10-18T06:56:05.964Z,1016.19
2017-10-18T06:57:14.810Z,1016.2
2017-10-18T06:58:23.663Z,1016.22
2017-10-18T06:59:32.508Z,1016.21
2017-10-18T07:00:41.354Z,1016.18
2017-10-18T07:01:50.203Z,1016.19
2017-10-18T07:02:59.102Z,1016.16
2017-10-18T07:04:07.950Z,1016.21
2017-10-18T07:05:16.802Z,1016.23
2017-10-18T07:06:25.651Z,1016.24
2017-10-18T07:07:34.498Z,1016.23
2017-10-18T07:08:43.444Z,1016.18
2017-10-18T07:09:52.295Z,1016.18
2017-10-18T07:11:01.144Z,1016.18
2017-10-18T07:12:10.004Z,1016.17
2017-10-18T07:13:18.855Z,1016.23
2017-10-18T07:14:27.906Z,1016.2
2017-10-18T07:15:36.758Z,1016.27
2017-10-18T07:16:45.606Z,1016.28
2017-10-18T07:17:54.455Z,1016.28
2017-10-18T07:19:03.307Z,1016.32
2017-10-18T07:20:12.355Z,1016.33
2017-10-18T07:21:21.216Z,1016.34
2017-10-18T07:22:30.051Z,1016.33
2017-10-18T07:23:38.900Z,1016.3
2017-10-18T07:24:47.750Z,1016.31
2017-10-18T07:25:56.796Z,1016.28
2017-10-18T07:27:05.649Z,1016.28
2017-10-18T07:28:14.842Z,1016.26
2017-10-18T07:29:23.689Z,1016.3
2017-10-18T07:30:32.539Z,1016.35
2017-10-18T07:31:41.387Z,1016.4
2017-10-18T07:32:50.239Z,1016.4
2017-10-18T07:33:59.086Z,1016.35
2017-10-18T07:35:07.940Z,1016.31
2017-10-18T07:36:16.800Z,1016.24
2017-10-18T07:37:25.841Z,1016.2
2017-10-18T07:38:34.690Z,1016.19
2017-10-18T07:39:43.539Z,1016.24
2017-10-18T07:40:52.390Z,1016.26
2017-10-18T07:42:01.239Z,1016.26
2017-10-18T07:43:10.235Z,1016.23
2017-10-18T07:44:19.088Z,1016.21
2017-10-18T07:45:27.943Z,1016.16
2017-10-18T07:46:36.789Z,1016.18
2017-10-18T07:47:45.993Z,1016.12
2017-10-18T07:48:55.041Z,1016.15
2017-10-18T07:50:04.264Z,1016.15
2017-10-18T07:51:13.110Z,1016.19
2017-10-18T07:52:21.962Z,1016.19
2017-10-18T07:53:30.812Z,1016.21
2017-10-18T07:54:39.913Z,1016.16
2017-10-18T07:55:48.768Z,1016.12
2017-10-18T07:56:57.616Z,1016.07
2017-10-18T07:58:06.466Z,1016.12
2017-10-18T07:59:15.315Z,1016.11
2017-10-18T08:00:24.316Z,1016.12
2017-10-18T08:01:33.166Z,1016.1
2017-10-18T08:02:42.017Z,1016.12
2017-10-18T08:03:50.870Z,1016.13
2017-10-18T08:04:59.720Z,1016.09
2017-10-18T08:06:08.768Z,1016.12
2017-10-18T08:07:17.617Z,1016.1
2017-10-18T08:08:26.468Z,1016.12
2017-10-18T08:09:35.322Z,1016.12
2017-10-18T08:10:44.177Z,1016.14
2017-10-18T08:11:53.173Z,1016.1
2017-10-18T08:13:02.020Z,1016.13
2017-10-18T08:14:10.866Z,1016.15
2017-10-18T08:15:19.714Z,1016.12
2017-10-18T08:16:28.565Z,1016.11
2017-10-18T08:17:37.464Z,1016.11
2017-10-18T08:18:46.311Z,1016.09
2017-10-18T08:19:55.161Z,1016.13
2017-10-18T08:21:04.010Z,1016.13
2017-10-18T08:22:12.858Z,1016.11
2017-10-18T08:23:21.714Z,1016.14
2017-10-18T08:24:30.580Z,1016.09
2017-10-18T08:25:39.429Z,1016.14
2017-10-18T08:26:48.282Z,1016.15
2017-10-18T08:27:57.146Z,1016.18
2017-10-18T08:29:06.492Z,1016.19
2017-10-18T08:30:15.343Z,1016.21
2017-10-18T08:31:24.194Z,1016.17
2017-10-18T08:32:33.042Z,1016.21
2017-10-18T08:33:41.893Z,1016.18
2017-10-18T08:34:50.793Z,1016.25
2017-10-18T08:35:59.996Z,1016.24
2017-10-18T08:37:08.846Z,1016.25
2017-10-18T08:38:17.698Z,1016.29
2017-10-18T08:39:26.891Z,1016.29
2017-10-18T08:40:35.894Z,1016.22
2017-10-18T08:41:44.745Z,1016.26
2017-10-18T08:42:53.596Z,1016.24
2017-10-18T08:44:02.454Z,1016.24
2017-10-18T08:45:11.301Z,1016.25
2017-10-18T08:46:20.348Z,1016.21
2017-10-18T08:47:29.197Z,1016.18
2017-10-18T08:48:38.046Z,1016.14
2017-10-18T08:49:46.897Z,1016.13
2017-10-18T08:50:55.747Z,1016.12
2017-10-18T08:52:04.697Z,1016.14
2017-10-18T08:53:13.548Z,1016.21
2017-10-18T08:54:22.400Z,1016.18
2017-10-18T08:55:31.250Z,1016.11
2017-10-18T08:56:40.110Z,1016.13
2017-10-18T08:57:49.458Z,1016.1
2017-10-18T08:58:58.309Z,1016.09
2017-10-18T09:00:07.157Z,1016.08
2017-10-18T09:01:16.010Z,1016.1
2017-10-18T09:02:24.856Z,1016.1
2017-10-18T09:03:33.759Z,1016.15
2017-10-18T09:04:42.609Z,1016.14
2017-10-18T09:05:51.460Z,1016.13
2017-10-18T09:07:00.312Z,1016.11
2017-10-18T09:08:09.163Z,1016.12
2017-10-18T09:09:18.463Z,1016.08
2017-10-18T09:10:27.315Z,1016.06
2017-10-18T09:11:36.164Z,1016.09
2017-10-18T09:12:45.022Z,1016.1
2017-10-18T09:13:53.874Z,1016.13
2017-10-18T09:15:03.223Z,1016.1
2017-10-18T09:16:12.071Z,1016.11
2017-10-18T09:17:20.920Z,1016.06
2017-10-18T09:18:29.771Z,1016.05
2017-10-18T09:19:38.621Z,1016.01
2017-10-18T09:20:47.773Z,1016.01
2017-10-18T09:21:56.625Z,1015.99
2017-10-18T09:23:05.833Z,1016.03
2017-10-18T09:24:14.684Z,1016.07
2017-10-18T09:25:23.537Z,1016.09
2017-10-18T09:26:32.783Z,1016.03
2017-10-18T09:27:41.630Z,1016.02
2017-10-18T09:28:50.479Z,1016
2017-10-18T09:29:59.330Z,1016
2017-10-18T09:31:08.178Z,1016
2017-10-18T09:32:17.231Z,1016
2017-10-18T09:33:26.083Z,1016.02
2017-10-18T09:34:34.941Z,1015.99
2017-10-18T09:35:43.788Z,1015.99
2017-10-18T09:36:52.639Z,1016.02
2017-10-18T09:38:01.485Z,1015.99
2017-10-18T09:39:10.346Z,1016.03
2017-10-18T09:40:19.192Z,1016.03
2017-10-18T09:41:28.042Z,1016.02
2017-10-18T09:42:36.890Z,1015.98
2017-10-18T09:43:45.743Z,1016.01
2017-10-18T09:44:54.944Z,1015.97
2017-10-18T09:46:03.793Z,1015.95
2017-10-18T09:47:12.646Z,1015.93
2017-10-18T09:48:21.496Z,1015.92
2017-10-18T09:49:30.749Z,1015.91
2017-10-18T09:50:39.602Z,1015.91
2017-10-18T09:51:48.454Z,1015.9
2017-10-18T09:52:57.306Z,1015.86
2017-10-18T09:54:06.160Z,1015.89
2017-10-18T09:55:15.010Z,1015.91
2017-10-18T09:56:23.860Z,1015.89
2017-10-18T09:57:32.709Z,1015.89
2017-10-18T09:58:41.558Z,1015.87
2017-10-18T09:59:50.410Z,1015.88
2017-10-18T10:00:59.411Z,1015.86
2017-10-18T10:02:08.260Z,1015.86
2017-10-18T10:03:17.124Z,1015.9
2017-10-18T10:04:25.976Z,1015.9
2017-10-18T10:05:34.829Z,1015.92
2017-10-18T10:06:43.831Z,1015.94
2017-10-18T10:07:52.686Z,1015.88
2017-10-18T10:09:01.538Z,1015.88
2017-10-18T10:10:10.389Z,1015.89
2017-10-18T10:11:19.240Z,1015.89
2017-10-18T10:12:28.486Z,1015.92
2017-10-18T10:13:37.334Z,1015.89
2017-10-18T10:14:46.183Z,1015.94
2017-10-18T10:15:55.034Z,1015.99
2017-10-18T10:17:03.886Z,1016
2017-10-18T10:18:12.989Z,1015.94
2017-10-18T10:19:21.841Z,1015.91
2017-10-18T10:20:30.692Z,1015.95
2017-10-18T10:21:39.554Z,1015.96
2017-10-18T10:22:48.755Z,1015.97
2017-10-18T10:23:58.015Z,1015.98
2017-10-18T10:25:06.867Z,1015.98
2017-10-18T10:26:15.725Z,1015.96
2017-10-18T10:27:24.572Z,1015.91
2017-10-18T10:28:33.422Z,1015.92
2017-10-18T10:29:42.429Z,1015.92
2017-10-18T10:30:51.275Z,1015.87
2017-10-18T10:32:00.129Z,1015.88
2017-10-18T10:33:08.978Z,1015.9
2017-10-18T10:34:17.829Z,1015.88
2017-10-18T10:35:26.933Z,1015.86
2017-10-18T10:36:35.786Z,1015.89
2017-10-18T10:37:44.643Z,1015.87
2017-10-18T10:38:53.493Z,1015.87
2017-10-18T10:40:02.346Z,1015.86
2017-10-18T10:41:11.346Z,1015.86
2017-10-18T10:42:20.203Z,1015.86
2017-10-18T10:43:29.060Z,1015.82
2017-10-18T10:44:38.260Z,1015.82
2017-10-18T10:45:47.110Z,1015.8
2017-10-18T10:46:56.409Z,1015.8
2017-10-18T10:48:05.262Z,1015.77
2017-10-18T10:49:14.115Z,1015.74
2017-10-18T10:50:22.963Z,1015.81
2017-10-18T10:51:31.819Z,1015.79
2017-10-18T10:52:40.671Z,1015.74
2017-10-18T10:53:49.528Z,1015.74
2017-10-18T10:54:58.378Z,1015.73
2017-10-18T10:56:07.229Z,1015.66
2017-10-18T10:57:16.079Z,1015.75
2017-10-18T10:58:25.183Z,1015.67
2017-10-18T10:59:34.033Z,1015.71
2017-10-18T11:00:42.887Z,1015.67
2017-10-18T11:01:51.735Z,1015.68
2017-10-18T11:03:00.591Z,1015.65
2017-10-18T11:04:09.844Z,1015.65
2017-10-18T11:05:18.695Z,1015.64
2017-10-18T11:06:27.548Z,1015.65
2017-10-18T11:07:36.400Z,1015.65
2017-10-18T11:08:45.261Z,1015.61
2017-10-18T11:09:54.362Z,1015.62
2017-10-18T11:11:03.218Z,1015.63
2017-10-18T11:12:12.070Z,1015.63
2017-10-18T11:13:20.920Z,1015.59
2017-10-18T11:14:29.774Z,1015.57
2017-10-18T11:15:38.877Z,1015.58
2017-10-18T11:16:47.730Z,1015.6
2017-10-18T11:17:56.588Z,1015.6
2017-10-18T11:19:05.440Z,1015.57
2017-10-18T11:20:14.292Z,1015.52
2017-10-18T11:21:23.447Z,1015.5
2017-10-18T11:22:32.301Z,1015.52
2017-10-18T11:23:41.153Z,1015.49
2017-10-18T11:24:50.004Z,1015.52
2017-10-18T11:25:58.856Z,1015.54
2017-10-18T11:27:08.356Z,1015.51
2017-10-18T11:28:17.211Z,1015.49
2017-10-18T11:29:26.063Z,1015.53
2017-10-18T11:30:34.916Z,1015.48
2017-10-18T11:31:43.771Z,1015.45
2017-10-18T11:32:52.722Z,1015.47
2017-10-18T11:34:01.580Z,1015.47
2017-10-18T11:35:10.436Z,1015.45
2017-10-18T11:36:19.287Z,1015.47
2017-10-18T11:37:28.142Z,1015.42
2017-10-18T11:38:37.299Z,1015.39
2017-10-18T11:39:46.151Z,1015.39
2017-10-18T11:40:55.005Z,1015.37
2017-10-18T11:42:03.869Z,1015.39
2017-10-18T11:43:12.715Z,1015.36
2017-10-18T11:44:21.574Z,1015.39
2017-10-18T11:45:30.426Z,1015.35
2017-10-18T11:46:39.280Z,1015.33
2017-10-18T11:47:48.135Z,1015.34
2017-10-18T11:48:56.988Z,1015.34
2017-10-18T11:50:05.894Z,1015.34
2017-10-18T11:51:14.747Z,1015.32
2017-10-18T11:52:23.601Z,1015.32
2017-10-18T11:53:32.451Z,1015.3
2017-10-18T11:54:41.307Z,1015.32
2017-10-18T11:55:50.454Z,1015.29
2017-10-18T11:56:59.344Z,1015.25
2017-10-18T11:58:08.164Z,1015.26
2017-10-18T11:59:17.020Z,1015.23
2017-10-18T12:00:25.876Z,1015.23
2017-10-18T12:01:35.077Z,1015.24
2017-10-18T12:02:43.928Z,1015.24
2017-10-18T12:03:52.781Z,1015.16
2017-10-18T12:05:01.636Z,1015.19
2017-10-18T12:06:10.488Z,1015.15
2017-10-18T12:07:19.642Z,1015.15
2017-10-18T12:08:28.494Z,1015.14
2017-10-18T12:09:37.701Z,1015.13
2017-10-18T12:10:46.553Z,1015.11
2017-10-18T12:11:55.415Z,1015.11
2017-10-18T12:13:04.421Z,1015.12
2017-10-18T12:14:13.271Z,1015.11
2017-10-18T12:15:22.126Z,1015.08
2017-10-18T12:16:31.326Z,1015.1
2017-10-18T12:17:40.184Z,1015.06
2017-10-18T12:18:49.335Z,1015.06
2017-10-18T12:19:58.190Z,1015.06
2017-10-18T12:21:07.147Z,1015.06
2017-10-18T12:22:16.003Z,1015.04
2017-10-18T12:23:24.858Z,1015.07
2017-10-18T12:24:33.723Z,1015.05
2017-10-18T12:25:42.586Z,1015.05
2017-10-18T12:26:51.441Z,1015
2017-10-18T12:28:00.294Z,1014.97
2017-10-18T12:29:09.151Z,1015.01
2017-10-18T12:30:18.162Z,1014.96
2017-10-18T12:31:27.018Z,1014.97
2017-10-18T12:32:35.880Z,1014.97
2017-10-18T12:33:44.742Z,1014.96
2017-10-18T12:34:53.596Z,1014.92
2017-10-18T12:36:02.503Z,1014.93
2017-10-18T12:37:11.359Z,1014.95
2017-10-18T12:38:20.215Z,1014.99
2017-10-18T12:39:29.074Z,1014.96
2017-10-18T12:40:37.924Z,1014.95
2017-10-18T12:41:46.830Z,1015
2017-10-18T12:42:55.683Z,1014.92
2017-10-18T12:44:04.537Z,1014.96
2017-10-18T12:45:13.394Z,1014.94
2017-10-18T12:46:22.252Z,1014.9
2017-10-18T12:47:31.209Z,1014.91
2017-10-18T12:48:40.063Z,1014.97
2017-10-18T12:49:48.928Z,1014.96
2017-10-18T12:50:58.137Z,1014.96
2017-10-18T12:52:07.338Z,1014.99
2017-10-18T12:53:16.393Z,1015
2017-10-18T12:54:25.252Z,1015
2017-10-18T12:55:34.101Z,1014.97
2017-10-18T12:56:42.956Z,1014.97
2017-10-18T12:57:51.810Z,1014.92
2017-10-18T12:59:00.918Z,1014.9
2017-10-18T13:00:09.773Z,1014.91
2017-10-18T13:01:18.986Z,1014.88
2017-10-18T13:02:27.842Z,1014.83
2017-10-18T13:03:36.698Z,1014.81
2017-10-18T13:04:45.755Z,1014.8
2017-10-18T13:05:54.961Z,1014.83
2017-10-18T13:07:03.815Z,1014.78
2017-10-18T13:08:12.677Z,1014.77
2017-10-18T13:09:21.532Z,1014.85
2017-10-18T13:10:30.786Z,1014.77
2017-10-18T13:11:39.642Z,1014.81
2017-10-18T13:12:48.499Z,1014.82
2017-10-18T13:13:57.356Z,1014.78
2017-10-18T13:15:06.557Z,1014.78
2017-10-18T13:16:15.512Z,1014.77
2017-10-18T13:17:24.712Z,1014.76
2017-10-18T13:18:33.569Z,1014.75
2017-10-18T13:19:42.423Z,1014.73
2017-10-18T13:20:51.280Z,1014.73
2017-10-18T13:22:00.286Z,1014.71
2017-10-18T13:23:09.143Z,1014.7
2017-10-18T13:24:18.002Z,1014.69
2017-10-18T13:25:26.855Z,1014.68
2017-10-18T13:26:36.054Z,1014.7
2017-10-18T13:27:45.008Z,1014.64
2017-10-18T13:28:53.869Z,1014.66
2017-10-18T13:30:02.722Z,1014.66
2017-10-18T13:31:11.579Z,1014.7
2017-10-18T13:32:20.435Z,1014.71
2017-10-18T13:33:29.339Z,1014.68
2017-10-18T13:34:38.193Z,1014.68
2017-10-18T13:35:47.048Z,1014.69
2017-10-18T13:36:55.909Z,1014.67
2017-10-18T13:38:04.770Z,1014.72
2017-10-18T13:39:13.824Z,1014.67
2017-10-18T13:40:22.682Z,1014.69
2017-10-18T13:41:31.536Z,1014.72
2017-10-18T13:42:40.393Z,1014.65
2017-10-18T13:43:49.250Z,1014.69
2017-10-18T13:44:58.257Z,1014.65
2017-10-18T13:46:07.111Z,1014.68
2017-10-18T13:47:15.966Z,1014.67
2017-10-18T13:48:24.874Z,1014.66
2017-10-18T13:49:33.729Z,1014.61
2017-10-18T13:50:42.787Z,1014.62
2017-10-18T13:51:51.642Z,1014.62
2017-10-18T13:53:00.493Z,1014.64
2017-10-18T13:54:09.351Z,1014.68
2017-10-18T13:55:18.209Z,1014.65
2017-10-18T13:56:27.168Z,1014.63
2017-10-18T13:57:36.024Z,1014.61